createdAt,value
2022-12-05T00:00:49.545Z,93.93
2022-12-05T00:01:49.886Z,93.83
2022-12-05T00:02:49.531Z,93.62
2022-12-05T00:03:49.581Z,93.52
2022-12-05T00:04:50.368Z,93.52
2022-12-05T00:05:49.526Z,93.41
2022-12-05T00:06:49.496Z,93.52
2022-12-05T00:07:49.561Z,93.52
2022-12-05T00:08:49.475Z,93.62
2022-12-05T00:09:49.487Z,93.73
2022-12-05T00:10:49.766Z,93.83
2022-12-05T00:11:50.251Z,93.83
2022-12-05T00:12:49.405Z,93.93
2022-12-05T00:13:49.427Z,93.93
2022-12-05T00:14:49.394Z,93.93
2022-12-05T00:15:49.526Z,93.93
2022-12-05T00:16:49.471Z,93.93
2022-12-05T00:17:49.363Z,93.83
2022-12-05T00:18:49.336Z,93.73
2022-12-05T00:19:55.178Z,93.52
2022-12-05T00:20:50.334Z,93.52
2022-12-05T00:21:50.038Z,93.52
2022-12-05T00:22:49.293Z,93.62
2022-12-05T00:23:49.303Z,93.73
2022-12-05T00:24:49.266Z,93.83
2022-12-05T00:25:49.282Z,94.04
2022-12-05T00:26:49.283Z,94.14
2022-12-05T00:27:49.263Z,94.24
2022-12-05T00:28:49.232Z,94.35
2022-12-05T00:29:49.232Z,94.45
2022-12-05T00:30:49.193Z,94.45
2022-12-05T00:31:49.267Z,94.56
2022-12-05T00:32:49.186Z,94.56
2022-12-05T00:33:49.231Z,94.56
2022-12-05T00:34:49.152Z,94.66
2022-12-05T00:35:49.162Z,94.66
2022-12-05T00:36:49.139Z,94.66
2022-12-05T00:37:49.123Z,94.76
2022-12-05T00:38:49.107Z,94.87
2022-12-05T00:39:49.129Z,94.98
2022-12-05T00:40:49.094Z,94.98
2022-12-05T00:41:49.091Z,95.08
2022-12-05T00:42:52.286Z,95.08
2022-12-05T00:43:49.069Z,95.18
2022-12-05T00:44:49.041Z,95.29
2022-12-05T00:45:49.098Z,95.29
2022-12-05T00:46:49.022Z,95.39
2022-12-05T00:47:49.020Z,95.39
2022-12-05T00:48:49.010Z,95.50
2022-12-05T00:49:49.011Z,95.50
2022-12-05T00:50:48.968Z,95.60
2022-12-05T00:51:48.990Z,95.60
2022-12-05T00:52:48.944Z,95.60
2022-12-05T00:53:48.962Z,95.60
2022-12-05T00:54:48.952Z,95.70
2022-12-05T00:55:48.935Z,95.60
2022-12-05T00:56:48.941Z,95.29
2022-12-05T00:57:48.921Z,95.02
2022-12-05T00:58:48.910Z,94.92
2022-12-05T00:59:48.901Z,94.92
2022-12-05T01:00:48.885Z,95.02
2022-12-05T01:01:49.819Z,95.02
2022-12-05T01:02:49.377Z,94.98
2022-12-05T01:03:48.845Z,95.12
2022-12-05T01:04:49.730Z,95.12
2022-12-05T01:05:48.856Z,95.12
2022-12-05T01:06:48.780Z,95.12
2022-12-05T01:07:48.873Z,95.12
2022-12-05T01:08:48.762Z,95.12
2022-12-05T01:09:48.790Z,95.23
2022-12-05T01:10:49.142Z,95.23
2022-12-05T01:11:48.758Z,95.23
2022-12-05T01:12:48.708Z,95.33
2022-12-05T01:13:48.722Z,95.33
2022-12-05T01:14:48.710Z,95.33
2022-12-05T01:15:48.697Z,95.33
2022-12-05T01:16:48.837Z,95.33
2022-12-05T01:17:48.678Z,95.33
2022-12-05T01:18:48.657Z,95.33
2022-12-05T01:19:48.658Z,95.33
2022-12-05T01:20:48.641Z,95.43
2022-12-05T01:21:48.657Z,95.43
2022-12-05T01:22:49.529Z,95.43
2022-12-05T01:23:48.624Z,95.43
2022-12-05T01:24:48.630Z,95.43
2022-12-05T01:25:48.590Z,95.54
2022-12-05T01:26:48.661Z,95.54
2022-12-05T01:27:48.587Z,95.54
2022-12-05T01:28:48.599Z,95.54
2022-12-05T01:29:49.368Z,95.54
2022-12-05T01:30:48.892Z,95.64
2022-12-05T01:31:48.583Z,95.64
2022-12-05T01:32:48.597Z,95.64
2022-12-05T01:33:48.507Z,95.75
2022-12-05T01:34:48.498Z,95.75
2022-12-05T01:35:48.476Z,95.75
2022-12-05T01:36:48.451Z,95.75
2022-12-05T01:37:48.527Z,95.79
2022-12-05T01:38:48.725Z,95.89
2022-12-05T01:39:48.449Z,95.89
2022-12-05T01:40:48.395Z,95.89
2022-12-05T01:41:49.064Z,95.89
2022-12-05T01:42:48.385Z,95.89
2022-12-05T01:43:48.434Z,95.89
2022-12-05T01:44:48.389Z,95.89
2022-12-05T01:45:48.413Z,95.89
2022-12-05T01:46:48.326Z,95.89
2022-12-05T01:47:48.333Z,95.89
2022-12-05T01:48:48.304Z,96.00
2022-12-05T01:49:48.314Z,96.00
2022-12-05T01:50:48.296Z,96.00
2022-12-05T01:51:48.352Z,96.00
2022-12-05T01:52:48.248Z,96.00
2022-12-05T01:53:48.434Z,96.00
2022-12-05T01:54:48.258Z,96.00
2022-12-05T01:55:48.243Z,96.00
2022-12-05T01:56:48.225Z,95.89
2022-12-05T01:57:48.232Z,95.94
2022-12-05T01:58:48.188Z,95.94
2022-12-05T01:59:49.053Z,95.83
2022-12-05T02:00:48.210Z,95.83
2022-12-05T02:01:48.250Z,95.73
2022-12-05T02:02:48.309Z,95.73
2022-12-05T02:03:48.924Z,95.62
2022-12-05T02:04:48.173Z,95.62
2022-12-05T02:05:48.193Z,95.52
2022-12-05T02:06:48.107Z,95.52
2022-12-05T02:07:48.146Z,95.52
2022-12-05T02:08:48.083Z,95.42
2022-12-05T02:09:48.232Z,95.46
2022-12-05T02:10:48.062Z,95.36
2022-12-05T02:11:48.071Z,95.25
2022-12-05T02:12:48.052Z,95.25
2022-12-05T02:13:48.051Z,95.15
2022-12-05T02:14:48.174Z,95.15
2022-12-05T02:15:52.313Z,95.15
2022-12-05T02:16:49.328Z,95.15
2022-12-05T02:17:48.011Z,95.15
2022-12-05T02:18:47.963Z,95.25
2022-12-05T02:19:47.991Z,95.25
2022-12-05T02:20:47.961Z,95.25
2022-12-05T02:21:47.950Z,95.15
2022-12-05T02:22:48.869Z,95.15
2022-12-05T02:23:48.790Z,95.15
2022-12-05T02:24:48.700Z,95.15
2022-12-05T02:25:48.121Z,95.15
2022-12-05T02:26:47.870Z,95.15
2022-12-05T02:27:48.684Z,95.15
2022-12-05T02:28:47.869Z,95.15
2022-12-05T02:29:48.729Z,95.15
2022-12-05T02:30:47.842Z,95.15
2022-12-05T02:31:47.871Z,95.15
2022-12-05T02:32:48.178Z,95.19
2022-12-05T02:33:48.181Z,95.19
2022-12-05T02:34:47.790Z,95.29
2022-12-05T02:35:47.789Z,95.29
2022-12-05T02:36:47.769Z,95.19
2022-12-05T02:37:47.896Z,95.19
2022-12-05T02:38:48.646Z,95.29
2022-12-05T02:39:47.800Z,95.29
2022-12-05T02:40:47.809Z,95.29
2022-12-05T02:41:47.729Z,95.29
2022-12-05T02:42:47.728Z,95.29
2022-12-05T02:43:47.720Z,95.40
2022-12-05T02:44:48.578Z,95.40
2022-12-05T02:45:47.752Z,95.40
2022-12-05T02:46:47.650Z,95.40
2022-12-05T02:47:47.649Z,95.40
2022-12-05T02:48:47.626Z,95.40
2022-12-05T02:49:48.377Z,95.40
2022-12-05T02:50:47.629Z,95.40
2022-12-05T02:51:47.630Z,95.50
2022-12-05T02:52:48.088Z,95.50
2022-12-05T02:53:47.587Z,95.50
2022-12-05T02:54:48.384Z,95.50
2022-12-05T02:55:47.627Z,95.50
2022-12-05T02:56:47.547Z,95.61
2022-12-05T02:57:47.558Z,95.61
2022-12-05T02:58:47.517Z,95.61
2022-12-05T02:59:48.407Z,95.61
2022-12-05T03:00:47.846Z,95.61
2022-12-05T03:01:47.822Z,95.61
2022-12-05T03:02:47.468Z,95.61
2022-12-05T03:03:48.360Z,95.61
2022-12-05T03:04:47.492Z,95.61
2022-12-05T03:05:48.345Z,95.61
2022-12-05T03:06:47.428Z,95.61
2022-12-05T03:07:47.661Z,95.61
2022-12-05T03:08:47.405Z,95.61
2022-12-05T03:09:47.429Z,95.61
2022-12-05T03:10:47.395Z,95.61
2022-12-05T03:11:47.406Z,95.61
2022-12-05T03:12:47.415Z,95.61
2022-12-05T03:13:47.425Z,95.61
2022-12-05T03:14:48.272Z,95.61
2022-12-05T03:15:47.369Z,95.61
2022-12-05T03:16:47.380Z,95.61
2022-12-05T03:17:47.315Z,95.61
2022-12-05T03:18:47.305Z,95.61
2022-12-05T03:19:48.023Z,95.61
2022-12-05T03:20:47.275Z,95.61
2022-12-05T03:21:47.313Z,95.61
2022-12-05T03:22:47.236Z,95.61
2022-12-05T03:23:47.483Z,95.72
2022-12-05T03:24:47.260Z,95.72
2022-12-05T03:25:47.243Z,95.72
2022-12-05T03:26:47.241Z,95.72
2022-12-05T03:27:47.183Z,95.72
2022-12-05T03:28:47.220Z,95.72
2022-12-05T03:29:48.091Z,95.72
2022-12-05T03:30:48.022Z,95.72
2022-12-05T03:31:47.901Z,95.76
2022-12-05T03:32:47.152Z,95.72
2022-12-05T03:33:47.139Z,95.72
2022-12-05T03:34:47.869Z,95.76
2022-12-05T03:35:47.463Z,95.76
2022-12-05T03:36:47.126Z,95.82
2022-12-05T03:37:47.094Z,95.86
2022-12-05T03:38:47.095Z,95.86
2022-12-05T03:39:47.593Z,95.86
2022-12-05T03:40:47.713Z,95.86
2022-12-05T03:41:47.238Z,95.86
2022-12-05T03:42:47.234Z,95.86
2022-12-05T03:43:47.221Z,95.86
2022-12-05T03:44:47.943Z,95.86
2022-12-05T03:45:47.877Z,95.86
2022-12-05T03:46:47.444Z,95.86
2022-12-05T03:47:46.961Z,95.86
2022-12-05T03:48:47.050Z,95.86
2022-12-05T03:49:47.051Z,95.86
2022-12-05T03:50:46.970Z,95.97
2022-12-05T03:51:47.158Z,95.97
2022-12-05T03:53:18.077Z,95.97
2022-12-05T03:53:47.899Z,95.97
2022-12-05T03:54:46.912Z,95.97
2022-12-05T03:55:46.869Z,95.97
2022-12-05T03:56:46.878Z,95.97
2022-12-05T03:57:46.861Z,95.97
2022-12-05T03:58:47.609Z,95.97
2022-12-05T03:59:46.900Z,95.97
2022-12-05T04:00:46.867Z,95.97
2022-12-05T04:01:46.880Z,95.97
2022-12-05T04:02:46.940Z,96.07
2022-12-05T04:03:47.706Z,96.07
2022-12-05T04:04:46.838Z,96.07
2022-12-05T04:05:47.478Z,96.07
2022-12-05T04:06:47.622Z,96.07
2022-12-05T04:07:46.913Z,96.07
2022-12-05T04:08:47.676Z,96.07
2022-12-05T04:09:47.577Z,96.07
2022-12-05T04:10:46.759Z,96.07
2022-12-05T04:11:46.718Z,96.17
2022-12-05T04:12:46.719Z,96.17
2022-12-05T04:13:46.700Z,96.17
2022-12-05T04:14:47.608Z,96.17
2022-12-05T04:15:47.051Z,96.17
2022-12-05T04:16:46.679Z,96.17
2022-12-05T04:17:52.074Z,96.17
2022-12-05T04:18:47.655Z,96.17
2022-12-05T04:19:47.136Z,96.17
2022-12-05T04:20:47.156Z,96.17
2022-12-05T04:21:46.956Z,96.17
2022-12-05T04:22:47.170Z,96.17
2022-12-05T04:23:47.921Z,96.17
2022-12-05T04:24:46.677Z,96.28
2022-12-05T04:25:46.569Z,96.28
2022-12-05T04:26:47.477Z,96.28
2022-12-05T04:27:46.515Z,96.28
2022-12-05T04:28:46.543Z,96.28
2022-12-05T04:29:46.604Z,96.28
2022-12-05T04:30:46.635Z,96.28
2022-12-05T04:31:47.255Z,96.28
2022-12-05T04:32:46.500Z,96.38
2022-12-05T04:33:46.834Z,96.38
2022-12-05T04:34:46.847Z,96.38
2022-12-05T04:35:46.805Z,96.38
2022-12-05T04:36:47.286Z,96.38
2022-12-05T04:37:46.954Z,96.38
2022-12-05T04:38:46.872Z,96.38
2022-12-05T04:39:47.074Z,96.38
2022-12-05T04:40:46.687Z,96.38
2022-12-05T04:41:47.324Z,96.38
2022-12-05T04:42:46.384Z,96.38
2022-12-05T04:43:46.492Z,96.38
2022-12-05T04:44:47.294Z,96.38
2022-12-05T04:45:46.342Z,96.38
2022-12-05T04:46:46.396Z,96.38
2022-12-05T04:47:47.257Z,96.38
2022-12-05T04:48:46.314Z,96.38
2022-12-05T04:49:50.635Z,96.38
2022-12-05T04:50:47.316Z,96.38
2022-12-05T04:51:47.132Z,96.49
2022-12-05T04:52:46.266Z,96.49
2022-12-05T04:53:46.253Z,96.49
2022-12-05T04:54:46.260Z,96.49
2022-12-05T04:55:46.208Z,96.49
2022-12-05T04:56:46.275Z,96.49
2022-12-05T04:57:46.183Z,96.49
2022-12-05T04:58:46.217Z,96.49
2022-12-05T04:59:46.187Z,96.49
2022-12-05T05:00:46.182Z,96.49
2022-12-05T05:01:46.160Z,96.49
2022-12-05T05:02:46.395Z,96.49
2022-12-05T05:03:46.133Z,96.49
2022-12-05T05:04:46.145Z,96.49
2022-12-05T05:05:46.122Z,96.49
2022-12-05T05:06:46.975Z,96.49
2022-12-05T05:07:46.223Z,96.49
2022-12-05T05:08:46.259Z,96.49
2022-12-05T05:09:46.042Z,96.49
2022-12-05T05:10:46.057Z,96.49
2022-12-05T05:11:46.035Z,96.59
2022-12-05T05:12:46.041Z,96.49
2022-12-05T05:13:46.058Z,96.49
2022-12-05T05:14:46.047Z,96.49
2022-12-05T05:15:46.010Z,96.49
2022-12-05T05:16:45.991Z,96.49
2022-12-05T05:17:45.951Z,96.59
2022-12-05T05:18:45.971Z,96.59
2022-12-05T05:19:45.938Z,96.59
2022-12-05T05:20:45.962Z,96.59
2022-12-05T05:21:45.930Z,96.59
2022-12-05T05:22:45.920Z,96.59
2022-12-05T05:23:45.880Z,96.59
2022-12-05T05:24:45.924Z,96.59
2022-12-05T05:25:45.879Z,96.59
2022-12-05T05:26:45.887Z,96.59
2022-12-05T05:27:45.880Z,96.59
2022-12-05T05:28:45.883Z,96.59
2022-12-05T05:29:45.823Z,96.70
2022-12-05T05:30:45.868Z,96.59
2022-12-05T05:31:45.874Z,96.70
2022-12-05T05:32:45.834Z,96.70
2022-12-05T05:33:45.846Z,96.70
2022-12-05T05:34:45.780Z,96.70
2022-12-05T05:35:45.744Z,96.70
2022-12-05T05:36:45.768Z,96.70
2022-12-05T05:37:45.760Z,96.70
2022-12-05T05:38:45.767Z,96.70
2022-12-05T05:39:45.754Z,96.70
2022-12-05T05:40:45.747Z,96.70
2022-12-05T05:41:45.743Z,96.70
2022-12-05T05:42:45.716Z,96.70
2022-12-05T05:43:45.714Z,96.70
2022-12-05T05:44:45.691Z,96.70
2022-12-05T05:45:45.689Z,96.70
2022-12-05T05:46:45.721Z,96.70
2022-12-05T05:47:46.100Z,96.70
2022-12-05T05:48:46.214Z,96.70
2022-12-05T05:49:45.608Z,96.70
2022-12-05T05:50:45.627Z,96.70
2022-12-05T05:51:45.613Z,96.70
2022-12-05T05:52:45.597Z,96.70
2022-12-05T05:53:45.563Z,96.70
2022-12-05T05:54:45.595Z,96.70
2022-12-05T05:55:45.536Z,96.70
2022-12-05T05:56:45.544Z,96.70
2022-12-05T05:57:45.507Z,96.70
2022-12-05T05:58:45.538Z,96.70
2022-12-05T05:59:45.493Z,96.59
2022-12-05T06:00:45.515Z,96.59
2022-12-05T06:01:45.467Z,96.59
2022-12-05T06:02:45.557Z,96.59
2022-12-05T06:03:45.578Z,96.70
2022-12-05T06:04:45.475Z,96.70
2022-12-05T06:05:50.086Z,96.70
2022-12-05T06:06:46.444Z,96.70
2022-12-05T06:07:46.275Z,96.70
2022-12-05T06:08:45.847Z,96.70
2022-12-05T06:09:45.834Z,96.70
2022-12-05T06:10:45.384Z,96.70
2022-12-05T06:11:45.344Z,96.80
2022-12-05T06:12:45.364Z,96.80
2022-12-05T06:13:45.334Z,96.80
2022-12-05T06:14:45.363Z,96.80
2022-12-05T06:15:45.324Z,96.80
2022-12-05T06:16:45.387Z,96.80
2022-12-05T06:17:45.285Z,96.80
2022-12-05T06:18:45.300Z,96.80
2022-12-05T06:19:45.264Z,96.80
2022-12-05T06:20:45.286Z,96.80
2022-12-05T06:21:45.247Z,96.80
2022-12-05T06:22:45.266Z,96.80
2022-12-05T06:23:45.234Z,96.80
2022-12-05T06:24:45.266Z,96.80
2022-12-05T06:25:45.206Z,96.80
2022-12-05T06:26:45.251Z,96.70
2022-12-05T06:27:45.183Z,96.70
2022-12-05T06:28:45.199Z,96.70
2022-12-05T06:29:45.173Z,96.70
2022-12-05T06:30:45.184Z,96.70
2022-12-05T06:31:45.199Z,96.70
2022-12-05T06:32:45.162Z,96.70
2022-12-05T06:33:45.382Z,96.70
2022-12-05T06:34:45.150Z,96.70
2022-12-05T06:35:45.082Z,96.70
2022-12-05T06:36:45.530Z,96.70
2022-12-05T06:37:45.813Z,96.70
2022-12-05T06:38:45.083Z,96.70
2022-12-05T06:39:45.053Z,96.70
2022-12-05T06:40:45.131Z,96.70
2022-12-05T06:41:45.004Z,96.80
2022-12-05T06:42:45.034Z,96.70
2022-12-05T06:43:44.989Z,96.80
2022-12-05T06:44:45.001Z,96.80
2022-12-05T06:45:45.019Z,96.80
2022-12-05T06:46:44.991Z,96.80
2022-12-05T06:47:44.960Z,96.80
2022-12-05T06:48:44.968Z,96.80
2022-12-05T06:49:44.929Z,96.80
2022-12-05T06:50:44.939Z,96.80
2022-12-05T06:51:44.919Z,96.80
2022-12-05T06:52:44.931Z,96.80
2022-12-05T06:53:44.867Z,96.80
2022-12-05T06:54:44.882Z,96.80
2022-12-05T06:55:45.136Z,96.80
2022-12-05T06:56:44.879Z,96.80
2022-12-05T06:57:44.850Z,96.80
2022-12-05T06:58:44.861Z,96.80
2022-12-05T06:59:44.818Z,96.80
2022-12-05T07:00:44.864Z,96.80
2022-12-05T07:01:44.921Z,96.80
2022-12-05T07:02:44.825Z,96.80
2022-12-05T07:03:44.765Z,96.80
2022-12-05T07:04:44.771Z,96.80
2022-12-05T07:05:44.745Z,96.91
2022-12-05T07:06:49.898Z,96.91
2022-12-05T07:07:45.795Z,96.91
2022-12-05T07:08:44.718Z,96.91
2022-12-05T07:09:44.718Z,96.91
2022-12-05T07:10:44.697Z,96.91
2022-12-05T07:11:44.669Z,96.91
2022-12-05T07:12:44.690Z,96.91
2022-12-05T07:13:44.687Z,96.91
2022-12-05T07:14:49.313Z,96.91
2022-12-05T07:15:45.657Z,96.91
2022-12-05T07:16:44.820Z,96.91
2022-12-05T07:17:44.625Z,96.91
2022-12-05T07:18:44.618Z,96.91
2022-12-05T07:19:44.597Z,96.91
2022-12-05T07:21:10.634Z,96.86
2022-12-05T07:21:45.557Z,96.76
2022-12-05T07:22:44.580Z,96.76
2022-12-05T07:23:44.527Z,96.76
2022-12-05T07:24:44.564Z,96.76
2022-12-05T07:25:44.539Z,96.76
2022-12-05T07:26:44.542Z,96.76
2022-12-05T07:27:44.515Z,96.76
2022-12-05T07:28:44.505Z,96.76
2022-12-05T07:29:45.278Z,96.76
2022-12-05T07:30:45.445Z,96.76
2022-12-05T07:31:44.527Z,96.76
2022-12-05T07:32:44.465Z,96.76
2022-12-05T07:33:44.764Z,96.76
2022-12-05T07:34:45.306Z,96.76
2022-12-05T07:35:44.975Z,96.66
2022-12-05T07:36:44.588Z,96.66
2022-12-05T07:37:45.276Z,96.66
2022-12-05T07:38:45.208Z,96.66
2022-12-05T07:39:45.336Z,96.66
2022-12-05T07:40:45.244Z,96.66
2022-12-05T07:41:45.144Z,96.66
2022-12-05T07:42:45.320Z,96.66
2022-12-05T07:43:44.739Z,96.66
2022-12-05T07:44:44.945Z,96.66
2022-12-05T07:45:45.312Z,96.66
2022-12-05T07:46:44.274Z,96.55
2022-12-05T07:47:44.350Z,96.55
2022-12-05T07:48:44.255Z,96.55
2022-12-05T07:49:45.143Z,96.55
2022-12-05T07:50:44.263Z,96.40
2022-12-05T07:51:45.213Z,96.40
2022-12-05T07:52:44.263Z,96.40
2022-12-05T07:53:44.267Z,96.40
2022-12-05T07:54:44.254Z,96.30
2022-12-05T07:55:44.213Z,96.30
2022-12-05T07:56:47.763Z,96.30
2022-12-05T07:57:44.183Z,96.30
2022-12-05T07:58:44.142Z,96.19
2022-12-05T07:59:44.183Z,96.19
2022-12-05T08:00:44.194Z,96.19
2022-12-05T08:01:44.410Z,96.19
2022-12-05T08:02:44.995Z,96.09
2022-12-05T08:03:44.140Z,96.09
2022-12-05T08:04:44.096Z,96.09
2022-12-05T08:05:44.092Z,96.09
2022-12-05T08:06:44.085Z,95.98
2022-12-05T08:07:45.013Z,95.98
2022-12-05T08:08:44.043Z,95.98
2022-12-05T08:09:44.298Z,95.88
2022-12-05T08:10:44.720Z,95.88
2022-12-05T08:11:48.144Z,95.78
2022-12-05T08:12:45.330Z,95.67
2022-12-05T08:13:44.897Z,95.56
2022-12-05T08:14:44.120Z,95.46
2022-12-05T08:15:43.991Z,95.36
2022-12-05T08:16:43.990Z,95.36
2022-12-05T08:17:43.962Z,95.36
2022-12-05T08:18:43.952Z,95.25
2022-12-05T08:19:43.990Z,95.25
2022-12-05T08:20:43.929Z,95.25
2022-12-05T08:21:43.930Z,95.25
2022-12-05T08:22:43.898Z,95.25
2022-12-05T08:23:43.918Z,95.21
2022-12-05T08:24:44.611Z,95.10
2022-12-05T08:25:43.875Z,95.15
2022-12-05T08:26:43.836Z,95.10
2022-12-05T08:27:43.858Z,95.10
2022-12-05T08:28:43.817Z,95.10
2022-12-05T08:29:43.845Z,95.10
2022-12-05T08:30:44.569Z,95.10
2022-12-05T08:31:44.711Z,95.00
2022-12-05T08:32:43.768Z,95.00
2022-12-05T08:33:43.777Z,95.00
2022-12-05T08:34:43.749Z,94.90
2022-12-05T08:35:44.568Z,94.79
2022-12-05T08:36:43.746Z,94.69
2022-12-05T08:37:43.737Z,94.69
2022-12-05T08:38:43.727Z,94.58
2022-12-05T08:39:44.448Z,94.58
2022-12-05T08:40:44.596Z,94.48
2022-12-05T08:41:43.758Z,94.37
2022-12-05T08:42:43.709Z,94.37
2022-12-05T08:43:43.722Z,94.33
2022-12-05T08:44:43.917Z,94.33
2022-12-05T08:45:43.711Z,94.33
2022-12-05T08:46:43.682Z,94.33
2022-12-05T08:47:43.647Z,94.33
2022-12-05T08:48:43.655Z,94.23
2022-12-05T08:49:43.628Z,94.12
2022-12-05T08:50:43.606Z,94.12
2022-12-05T08:51:43.605Z,94.02
2022-12-05T08:52:44.477Z,93.87
2022-12-05T08:53:44.836Z,93.77
2022-12-05T08:54:44.287Z,93.66
2022-12-05T08:55:43.707Z,93.56
2022-12-05T08:56:43.610Z,93.56
2022-12-05T08:57:43.526Z,93.46
2022-12-05T08:58:43.454Z,93.46
2022-12-05T08:59:43.494Z,93.35
2022-12-05T09:00:43.643Z,93.20
2022-12-05T09:01:43.563Z,93.10
2022-12-05T09:02:43.515Z,92.99
2022-12-05T09:03:47.818Z,92.89
2022-12-05T09:04:43.422Z,92.89
2022-12-05T09:05:43.468Z,92.68
2022-12-05T09:06:44.168Z,92.58
2022-12-05T09:07:43.620Z,92.47
2022-12-05T09:08:43.357Z,92.37
2022-12-05T09:09:43.404Z,92.27
2022-12-05T09:10:43.364Z,92.16
2022-12-05T09:11:43.343Z,92.16
2022-12-05T09:12:44.093Z,91.96
2022-12-05T09:13:43.504Z,91.81
2022-12-05T09:14:43.319Z,91.60
2022-12-05T09:15:43.336Z,91.39
2022-12-05T09:16:44.216Z,91.18
2022-12-05T09:17:44.124Z,91.08
2022-12-05T09:18:44.034Z,90.97
2022-12-05T09:19:43.291Z,91.08
2022-12-05T09:20:43.234Z,91.08
2022-12-05T09:21:43.252Z,91.08
2022-12-05T09:22:43.203Z,90.97
2022-12-05T09:23:43.235Z,90.87
2022-12-05T09:24:43.964Z,90.83
2022-12-05T09:25:43.476Z,90.72
2022-12-05T09:26:44.026Z,90.52
2022-12-05T09:27:43.945Z,90.20
2022-12-05T09:28:43.131Z,90.10
2022-12-05T09:29:43.992Z,90.00
2022-12-05T09:30:43.157Z,90.10
2022-12-05T09:31:43.332Z,90.10
2022-12-05T09:32:44.002Z,90.10
2022-12-05T09:33:43.171Z,90.00
2022-12-05T09:34:43.431Z,89.89
2022-12-05T09:35:43.080Z,89.79
2022-12-05T09:36:43.058Z,89.69
2022-12-05T09:37:43.151Z,89.58
2022-12-05T09:38:43.043Z,89.48
2022-12-05T09:39:43.572Z,89.48
2022-12-05T09:40:42.985Z,89.37
2022-12-05T09:41:43.291Z,89.27
2022-12-05T09:42:43.800Z,89.17
2022-12-05T09:43:43.190Z,89.06
2022-12-05T09:44:43.830Z,89.06
2022-12-05T09:45:42.973Z,89.02
2022-12-05T09:46:43.068Z,88.81
2022-12-05T09:47:42.960Z,88.81
2022-12-05T09:48:42.919Z,88.71
2022-12-05T09:49:42.910Z,88.71
2022-12-05T09:50:43.769Z,88.71
2022-12-05T09:51:43.679Z,88.81
2022-12-05T09:52:43.139Z,88.71
2022-12-05T09:53:43.773Z,88.71
2022-12-05T09:54:42.841Z,88.67
2022-12-05T09:55:43.799Z,88.67
2022-12-05T09:56:43.169Z,88.46
2022-12-05T09:57:43.609Z,88.35
2022-12-05T09:58:42.829Z,88.25
2022-12-05T09:59:42.842Z,88.04
2022-12-05T10:00:42.798Z,88.04
2022-12-05T10:01:43.801Z,87.84
2022-12-05T10:02:43.639Z,87.48
2022-12-05T10:03:43.550Z,87.27
2022-12-05T10:04:42.800Z,87.27
2022-12-05T10:05:42.750Z,87.07
2022-12-05T10:06:43.521Z,87.07
2022-12-05T10:07:43.701Z,87.17
2022-12-05T10:08:43.039Z,87.17
2022-12-05T10:09:43.494Z,87.07
2022-12-05T10:10:43.388Z,87.07
2022-12-05T10:11:42.697Z,87.17
2022-12-05T10:12:43.448Z,87.27
2022-12-05T10:13:42.878Z,87.48
2022-12-05T10:14:42.768Z,87.48
2022-12-05T10:15:45.729Z,87.59
2022-12-05T10:16:42.693Z,87.69
2022-12-05T10:17:42.607Z,87.69
2022-12-05T10:18:43.006Z,87.90
2022-12-05T10:19:43.321Z,87.79
2022-12-05T10:20:43.455Z,87.69
2022-12-05T10:21:43.356Z,87.59
2022-12-05T10:22:43.256Z,87.69
2022-12-05T10:23:57.002Z,87.59
2022-12-05T10:24:44.346Z,87.59
2022-12-05T10:25:42.508Z,87.79
2022-12-05T10:26:42.476Z,87.90
2022-12-05T10:27:42.486Z,87.90
2022-12-05T10:28:42.469Z,87.79
2022-12-05T10:29:43.357Z,87.79
2022-12-05T10:30:42.541Z,87.65
2022-12-05T10:31:42.495Z,87.55
2022-12-05T10:32:42.494Z,87.65
2022-12-05T10:33:43.226Z,87.55
2022-12-05T10:34:43.125Z,87.13
2022-12-05T10:35:43.294Z,86.96
2022-12-05T10:36:42.385Z,87.27
2022-12-05T10:37:43.120Z,87.48
2022-12-05T10:38:42.366Z,87.48
2022-12-05T10:39:42.375Z,87.48
2022-12-05T10:40:42.335Z,87.48
2022-12-05T10:41:43.226Z,87.27
2022-12-05T10:42:43.135Z,86.96
2022-12-05T10:43:43.035Z,87.07
2022-12-05T10:44:43.194Z,87.27
2022-12-05T10:45:43.095Z,87.48
2022-12-05T10:46:43.143Z,87.48
2022-12-05T10:47:42.294Z,87.59
2022-12-05T10:48:43.067Z,87.69
2022-12-05T10:49:42.965Z,87.79
2022-12-05T10:50:42.238Z,87.69
2022-12-05T10:51:43.599Z,87.69
2022-12-05T10:52:42.205Z,87.79
2022-12-05T10:53:42.234Z,87.69
2022-12-05T10:54:42.235Z,87.59
2022-12-05T10:56:00.056Z,87.69
2022-12-05T10:56:44.584Z,87.59
2022-12-05T10:57:42.204Z,87.48
2022-12-05T10:58:42.252Z,87.45
2022-12-05T10:59:43.037Z,87.38
2022-12-05T11:00:42.934Z,87.13
2022-12-05T11:01:42.894Z,87.17
2022-12-05T11:02:42.758Z,87.27
2022-12-05T11:03:42.123Z,86.76
2022-12-05T11:04:42.146Z,86.86
2022-12-05T11:05:42.258Z,87.17
2022-12-05T11:06:42.313Z,87.59
2022-12-05T11:07:42.098Z,87.90
2022-12-05T11:09:03.587Z,87.90
2022-12-05T11:09:43.039Z,87.90
2022-12-05T11:10:41.999Z,87.90
2022-12-05T11:11:42.002Z,88.00
2022-12-05T11:12:41.985Z,88.10
2022-12-05T11:13:42.055Z,88.00
2022-12-05T11:14:41.972Z,87.79
2022-12-05T11:15:42.001Z,87.90
2022-12-05T11:16:41.976Z,88.21
2022-12-05T11:17:41.951Z,88.42
2022-12-05T11:18:42.750Z,88.52
2022-12-05T11:19:41.911Z,88.52
2022-12-05T11:20:41.893Z,88.62
2022-12-05T11:21:42.712Z,88.62
2022-12-05T11:22:45.771Z,88.77
2022-12-05T11:23:42.873Z,88.73
2022-12-05T11:24:41.841Z,88.67
2022-12-05T11:25:41.856Z,88.56
2022-12-05T11:26:41.821Z,88.56
2022-12-05T11:27:41.810Z,88.56
2022-12-05T11:28:41.786Z,88.56
2022-12-05T11:29:41.843Z,88.46
2022-12-05T11:30:41.763Z,88.35
2022-12-05T11:31:41.893Z,88.56
2022-12-05T11:32:41.731Z,88.67
2022-12-05T11:33:41.753Z,88.67
2022-12-05T11:34:41.740Z,88.87
2022-12-05T11:35:41.760Z,88.87
2022-12-05T11:36:41.710Z,88.87
2022-12-05T11:37:41.710Z,88.77
2022-12-05T11:38:41.700Z,88.77
2022-12-05T11:39:41.705Z,88.46
2022-12-05T11:40:41.659Z,88.35
2022-12-05T11:41:41.663Z,88.50
2022-12-05T11:42:41.639Z,88.60
2022-12-05T11:43:41.649Z,88.71
2022-12-05T11:44:41.618Z,88.71
2022-12-05T11:45:41.639Z,88.71
2022-12-05T11:46:41.636Z,88.81
2022-12-05T11:47:41.590Z,89.02
2022-12-05T11:48:41.578Z,89.12
2022-12-05T11:49:41.578Z,89.23
2022-12-05T11:50:41.558Z,89.33
2022-12-05T11:51:41.569Z,89.43
2022-12-05T11:52:41.524Z,89.43
2022-12-05T11:53:41.528Z,89.33
2022-12-05T11:55:04.636Z,89.33
2022-12-05T11:55:42.527Z,89.43
2022-12-05T11:56:41.829Z,89.54
2022-12-05T11:57:41.487Z,89.43
2022-12-05T11:58:41.478Z,89.43
2022-12-05T11:59:41.457Z,89.54
2022-12-05T12:00:41.468Z,89.58
2022-12-05T12:01:41.482Z,89.79
2022-12-05T12:02:42.151Z,89.89
2022-12-05T12:03:41.403Z,90.00
2022-12-05T12:04:41.418Z,89.89
2022-12-05T12:05:41.367Z,89.79
2022-12-05T12:06:41.395Z,89.79
2022-12-05T12:07:41.379Z,89.69
2022-12-05T12:08:41.456Z,89.62
2022-12-05T12:09:41.336Z,89.83
2022-12-05T12:10:41.348Z,90.25
2022-12-05T12:11:41.321Z,90.35
2022-12-05T12:12:41.433Z,90.45
2022-12-05T12:13:41.535Z,90.56
2022-12-05T12:14:41.297Z,90.66
2022-12-05T12:15:41.247Z,90.66
2022-12-05T12:16:41.322Z,90.56
2022-12-05T12:17:41.240Z,90.66
2022-12-05T12:18:41.268Z,90.77
2022-12-05T12:19:41.233Z,90.87
2022-12-05T12:20:41.227Z,90.97
2022-12-05T12:21:41.203Z,91.18
2022-12-05T12:22:41.981Z,91.50
2022-12-05T12:23:41.904Z,91.60
2022-12-05T12:24:41.195Z,91.50
2022-12-05T12:25:41.165Z,91.50
2022-12-05T12:26:41.159Z,91.39
2022-12-05T12:27:41.127Z,91.39
2022-12-05T12:28:41.126Z,91.39
2022-12-05T12:29:43.125Z,91.50
2022-12-05T12:30:41.115Z,91.50
2022-12-05T12:31:41.123Z,91.28
2022-12-05T12:32:41.097Z,90.87
2022-12-05T12:33:41.076Z,90.87
2022-12-05T12:34:41.075Z,91.02
2022-12-05T12:35:41.033Z,91.12
2022-12-05T12:36:41.064Z,91.22
2022-12-05T12:37:41.021Z,91.50
2022-12-05T12:38:41.024Z,91.50
2022-12-05T12:39:41.026Z,91.50
2022-12-05T12:40:41.071Z,91.50
2022-12-05T12:41:40.966Z,91.60
2022-12-05T12:42:41.023Z,91.60
2022-12-05T12:43:56.299Z,91.50
2022-12-05T12:44:41.963Z,91.39
2022-12-05T12:45:40.951Z,91.39
2022-12-05T12:46:40.925Z,91.50
2022-12-05T12:47:40.943Z,91.60
2022-12-05T12:48:40.918Z,91.28
2022-12-05T12:49:40.906Z,91.18
2022-12-05T12:50:43.806Z,91.22
2022-12-05T12:51:40.875Z,91.22
2022-12-05T12:52:40.863Z,91.43